Time;durP1;ratioP1;P1;durP2;ratioP2;P2;SDS_P1;SDS_P2;PMS_P1;PMS_P2;Temp;Humidity;BMP_temperature;BMP_pressure;BME280_temperature;BME280_humidity;BME280_pressure;Samples;Min_cycle;Max_cycle;Signal;HPM_P1;HPM_P2
2022/10/20 00:00:23;;;;;;;14.33;5.67;;;;;;;;;;5043804;28;20639;-71
2022/10/20 00:02:49;;;;;;;8.73;5.80;;;;;;;;;;5038681;28;20653;-71
2022/10/20 00:05:14;;;;;;;11.83;5.90;;;;;;;;;;5043622;28;20596;-71
2022/10/20 00:07:39;;;;;;;10.43;5.90;;;;;;;;;;5045485;28;20645;-71
2022/10/20 00:10:05;;;;;;;8.30;5.90;;;;;;;;;;5047022;28;20636;-71
2022/10/20 00:12:31;;;;;;;10.73;5.93;;;;;;;;;;5044184;28;20204;-71
2022/10/20 00:14:56;;;;;;;10.17;5.53;;;;;;;;;;5043731;28;20185;-71
2022/10/20 00:17:21;;;;;;;9.73;5.90;;;;;;;;;;5029878;28;20189;-71
2022/10/20 00:19:47;;;;;;;8.77;5.70;;;;;;;;;;5034840;28;20551;-71
2022/10/20 00:22:13;;;;;;;9.43;5.53;;;;;;;;;;5034539;28;20185;-71
2022/10/20 00:24:38;;;;;;;10.43;5.63;;;;;;;;;;5048599;28;20319;-71
2022/10/20 00:27:03;;;;;;;10.07;5.87;;;;;;;;;;5047410;28;20193;-70
2022/10/20 00:29:29;;;;;;;8.67;5.40;;;;;;;;;;5048988;28;20185;-71
2022/10/20 00:31:54;;;;;;;11.10;5.67;;;;;;;;;;5048472;28;20229;-71
2022/10/20 00:34:20;;;;;;;7.90;4.93;;;;;;;;;;5046282;28;20646;-71
2022/10/20 00:36:45;;;;;;;9.87;5.60;;;;;;;;;;5037812;28;20650;-71
2022/10/20 00:39:11;;;;;;;10.90;6.07;;;;;;;;;;5039188;28;20206;-71
2022/10/20 00:41:36;;;;;;;14.53;5.90;;;;;;;;;;5036871;28;20174;-71
2022/10/20 00:44:40;;;;;;;8.53;5.37;;;;;;;;;;5043299;28;20181;-71
2022/10/20 00:47:11;;;;;;;11.93;5.43;;;;;;;;;;5037580;28;20191;-71
2022/10/20 00:49:36;;;;;;;12.07;5.47;;;;;;;;;;5037365;28;20190;-71
2022/10/20 00:52:02;;;;;;;9.10;5.70;;;;;;;;;;5037844;28;20209;-71
2022/10/20 00:54:27;;;;;;;12.37;5.70;;;;;;;;;;5041520;28;20189;-71
2022/10/20 00:56:55;;;;;;;13.50;5.23;;;;;;;;;;5041707;28;20662;-71
2022/10/20 00:59:24;;;;;;;11.23;5.63;;;;;;;;;;5039939;28;20698;-71
2022/10/20 01:01:49;;;;;;;12.33;5.93;;;;;;;;;;5038296;28;20193;-71
2022/10/20 01:04:15;;;;;;;11.40;5.43;;;;;;;;;;5043782;28;20567;-71
2022/10/20 01:06:41;;;;;;;10.63;5.30;;;;;;;;;;5033570;28;20268;-71
2022/10/20 01:09:07;;;;;;;11.73;5.00;;;;;;;;;;5029294;28;20261;-71
2022/10/20 01:12:09;;;;;;;7.63;5.20;;;;;;;;;;5043189;28;20212;-71
2022/10/20 01:14:56;;;;;;;10.30;5.13;;;;;;;;;;5040777;28;20189;-71
2022/10/20 01:17:34;;;;;;;9.57;5.53;;;;;;;;;;5037122;28;20394;-71
2022/10/20 01:20:21;;;;;;;9.50;4.90;;;;;;;;;;5037408;28;20606;-71
2022/10/20 01:23:26;;;;;;;10.97;5.63;;;;;;;;;;5049001;28;20199;-71
2022/10/20 01:26:07;;;;;;;11.50;5.60;;;;;;;;;;5050062;28;20435;-71
2022/10/20 01:28:32;;;;;;;9.40;5.80;;;;;;;;;;5034169;28;20544;-71
2022/10/20 01:31:02;;;;;;;11.43;5.30;;;;;;;;;;5036239;28;20181;-71
2022/10/20 01:33:49;;;;;;;8.00;5.37;;;;;;;;;;5032199;28;20287;-71
2022/10/20 01:36:47;;;;;;;7.43;4.77;;;;;;;;;;5040932;28;20207;-71
2022/10/20 01:39:22;;;;;;;8.13;5.00;;;;;;;;;;5039021;28;20198;-71
2022/10/20 01:41:57;;;;;;;10.00;5.53;;;;;;;;;;5033767;28;20205;-71
2022/10/20 01:44:25;;;;;;;9.60;5.60;;;;;;;;;;5049517;28;20269;-71
2022/10/20 01:46:52;;;;;;;8.67;5.30;;;;;;;;;;5038498;28;20189;-71
2022/10/20 01:49:17;;;;;;;8.87;5.13;;;;;;;;;;5050433;28;20185;-71
2022/10/20 01:51:43;;;;;;;9.07;5.37;;;;;;;;;;5035376;28;20198;-71
2022/10/20 01:54:23;;;;;;;10.27;5.10;;;;;;;;;;5043137;28;20201;-70
2022/10/20 01:57:18;;;;;;;6.77;5.27;;;;;;;;;;5047122;28;20184;-71
2022/10/20 02:00:03;;;;;;;9.03;5.13;;;;;;;;;;5029585;28;20217;-71
2022/10/20 02:03:04;;;;;;;9.07;5.50;;;;;;;;;;5037506;28;20186;-71
2022/10/20 02:05:56;;;;;;;9.90;5.43;;;;;;;;;;5035259;28;20229;-71
2022/10/20 02:08:54;;;;;;;10.33;4.90;;;;;;;;;;5032409;28;20246;-71
2022/10/20 02:11:55;;;;;;;10.20;5.00;;;;;;;;;;5030540;28;20206;-71
2022/10/20 02:14:22;;;;;;;8.83;5.73;;;;;;;;;;5017988;28;20224;-71
2022/10/20 02:17:09;;;;;;;8.17;5.30;;;;;;;;;;5031718;28;20630;-71
2022/10/20 02:19:40;;;;;;;8.93;5.33;;;;;;;;;;5043590;28;20185;-71
2022/10/20 02:22:08;;;;;;;8.67;5.40;;;;;;;;;;5046300;28;20189;-71
2022/10/20 02:24:37;;;;;;;12.07;5.80;;;;;;;;;;5031658;28;20182;-71
2022/10/20 02:27:26;;;;;;;9.80;5.40;;;;;;;;;;5038090;28;20703;-71
2022/10/20 02:30:02;;;;;;;9.70;6.00;;;;;;;;;;5035138;28;20201;-71
2022/10/20 02:32:30;;;;;;;10.30;6.10;;;;;;;;;;5030345;28;20261;-71
2022/10/20 02:34:56;;;;;;;13.03;6.50;;;;;;;;;;5041859;28;20185;-71
2022/10/20 02:37:21;;;;;;;14.97;6.60;;;;;;;;;;5042231;28;20201;-71
2022/10/20 02:39:46;;;;;;;9.30;6.10;;;;;;;;;;5030906;28;20189;-71
2022/10/20 02:42:12;;;;;;;8.73;5.83;;;;;;;;;;5032393;28;20304;-71
2022/10/20 02:44:37;;;;;;;9.43;6.17;;;;;;;;;;5047285;28;20214;-71
2022/10/20 02:47:03;;;;;;;14.57;6.17;;;;;;;;;;5039664;28;20276;-71
2022/10/20 02:49:28;;;;;;;8.50;5.30;;;;;;;;;;5043429;28;20196;-71
2022/10/20 02:51:54;;;;;;;12.83;5.87;;;;;;;;;;5029937;28;20225;-71
2022/10/20 02:54:19;;;;;;;13.03;5.80;;;;;;;;;;5049589;28;20278;-71
2022/10/20 02:56:44;;;;;;;14.13;6.23;;;;;;;;;;5030340;28;20669;-71
2022/10/20 02:59:15;;;;;;;11.23;6.23;;;;;;;;;;5032332;28;20657;-71
2022/10/20 03:01:41;;;;;;;14.07;6.20;;;;;;;;;;5041421;28;20213;-71
2022/10/20 03:04:06;;;;;;;10.87;6.30;;;;;;;;;;5033937;28;20228;-71
2022/10/20 03:06:31;;;;;;;9.80;6.77;;;;;;;;;;5046309;28;20188;-71
2022/10/20 03:08:57;;;;;;;12.27;6.47;;;;;;;;;;5037129;28;20189;-71
2022/10/20 03:11:24;;;;;;;15.63;7.27;;;;;;;;;;5047883;28;20212;-71
2022/10/20 03:13:49;;;;;;;12.13;6.67;;;;;;;;;;5031080;28;20186;-71
2022/10/20 03:16:15;;;;;;;11.27;6.70;;;;;;;;;;5049342;28;20200;-71
2022/10/20 03:18:40;;;;;;;10.63;7.17;;;;;;;;;;5034412;28;20609;-71
2022/10/20 03:21:05;;;;;;;10.97;6.97;;;;;;;;;;5050217;28;20185;-71
2022/10/20 03:23:31;;;;;;;10.70;7.07;;;;;;;;;;5038018;28;20181;-71
2022/10/20 03:26:01;;;;;;;14.30;6.80;;;;;;;;;;5038568;28;20602;-71
2022/10/20 03:28:26;;;;;;;16.17;7.23;;;;;;;;;;5043161;28;20175;-71
2022/10/20 03:30:52;;;;;;;11.83;6.83;;;;;;;;;;5043991;28;20189;-71
2022/10/20 03:33:17;;;;;;;14.43;7.27;;;;;;;;;;5041813;28;20549;-71
2022/10/20 03:35:42;;;;;;;11.10;7.20;;;;;;;;;;5045459;28;20177;-71
2022/10/20 03:38:08;;;;;;;19.27;7.57;;;;;;;;;;5035385;28;20543;-71
2022/10/20 03:40:33;;;;;;;12.57;7.33;;;;;;;;;;5043660;28;20627;-71
2022/10/20 03:42:58;;;;;;;15.10;7.93;;;;;;;;;;5036519;28;20175;-71
2022/10/20 03:45:24;;;;;;;14.77;7.97;;;;;;;;;;5029771;28;20715;-71
2022/10/20 03:47:49;;;;;;;13.10;7.63;;;;;;;;;;5034215;28;20681;-71
2022/10/20 03:50:14;;;;;;;12.23;8.17;;;;;;;;;;5028913;28;20174;-71
2022/10/20 03:52:40;;;;;;;14.47;7.43;;;;;;;;;;5029806;28;20288;-71
2022/10/20 03:55:05;;;;;;;15.87;7.73;;;;;;;;;;5043681;28;20264;-71
2022/10/20 03:57:31;;;;;;;14.60;8.17;;;;;;;;;;5032523;28;20189;-71
2022/10/20 03:59:56;;;;;;;13.97;7.67;;;;;;;;;;5048916;28;20323;-71
2022/10/20 04:02:30;;;;;;;12.70;7.67;;;;;;;;;;5031428;28;20213;-71
2022/10/20 04:04:55;;;;;;;12.70;8.03;;;;;;;;;;5038686;28;20181;-71
2022/10/20 04:07:21;;;;;;;12.77;8.23;;;;;;;;;;5035323;28;20556;-71
2022/10/20 04:09:46;;;;;;;14.30;8.50;;;;;;;;;;5041638;28;20219;-71
2022/10/20 04:12:11;;;;;;;16.83;9.23;;;;;;;;;;5038705;28;20206;-71
2022/10/20 04:14:37;;;;;;;13.83;8.53;;;;;;;;;;5035668;28;20545;-71
2022/10/20 04:17:02;;;;;;;14.17;9.10;;;;;;;;;;5034255;28;20258;-70
2022/10/20 04:19:27;;;;;;;12.60;8.47;;;;;;;;;;5046048;28;20209;-71
2022/10/20 04:21:53;;;;;;;13.97;8.80;;;;;;;;;;5045863;28;20177;-71
2022/10/20 04:24:18;;;;;;;14.27;9.40;;;;;;;;;;5040454;28;20189;-71
2022/10/20 04:26:43;;;;;;;16.37;9.07;;;;;;;;;;5035150;28;20174;-71
2022/10/20 04:29:08;;;;;;;16.80;10.20;;;;;;;;;;5038200;28;20204;-71
2022/10/20 04:31:34;;;;;;;13.83;9.33;;;;;;;;;;5047270;28;20645;-71
2022/10/20 04:33:59;;;;;;;17.07;9.97;;;;;;;;;;5048536;28;20196;-71
2022/10/20 04:36:24;;;;;;;13.83;9.70;;;;;;;;;;5038772;28;20175;-71
2022/10/20 04:38:50;;;;;;;14.53;9.47;;;;;;;;;;5035257;28;20196;-71
2022/10/20 04:41:15;;;;;;;15.97;10.00;;;;;;;;;;5040823;28;20178;-71
2022/10/20 04:43:40;;;;;;;18.20;10.33;;;;;;;;;;5040001;28;20590;-71
2022/10/20 04:46:06;;;;;;;14.60;9.93;;;;;;;;;;5032850;28;20215;-71
2022/10/20 04:48:31;;;;;;;16.60;10.40;;;;;;;;;;5036742;28;20178;-71
2022/10/20 04:51:02;;;;;;;17.87;10.23;;;;;;;;;;5041831;28;20178;-71
2022/10/20 04:53:27;;;;;;;16.77;11.00;;;;;;;;;;5035445;28;20186;-71
2022/10/20 04:55:54;;;;;;;16.27;10.63;;;;;;;;;;5031097;28;20175;-71
2022/10/20 04:58:20;;;;;;;16.67;10.27;;;;;;;;;;5036193;28;20646;-71
2022/10/20 05:00:46;;;;;;;16.70;10.87;;;;;;;;;;5045084;28;20252;-71
2022/10/20 05:03:11;;;;;;;15.97;10.77;;;;;;;;;;5055150;28;20199;-71
2022/10/20 05:05:37;;;;;;;18.40;11.83;;;;;;;;;;5039416;28;20190;-71
2022/10/20 05:08:02;;;;;;;19.23;10.90;;;;;;;;;;5042929;28;20244;-72
2022/10/20 05:10:27;;;;;;;19.90;12.00;;;;;;;;;;5041357;28;20186;-71
2022/10/20 05:12:52;;;;;;;19.90;12.40;;;;;;;;;;5035819;28;20209;-71
2022/10/20 05:15:18;;;;;;;19.27;12.27;;;;;;;;;;5039091;28;20181;-71
2022/10/20 05:17:43;;;;;;;21.03;11.73;;;;;;;;;;5045955;28;20550;-71
2022/10/20 05:20:09;;;;;;;20.47;12.83;;;;;;;;;;5037956;28;20929;-72
2022/10/20 05:22:34;;;;;;;22.80;13.23;;;;;;;;;;5054506;28;20231;-71
2022/10/20 05:24:59;;;;;;;17.53;12.37;;;;;;;;;;5053477;28;20205;-71
2022/10/20 05:27:25;;;;;;;21.27;13.53;;;;;;;;;;5035615;28;20185;-71
2022/10/20 05:29:50;;;;;;;19.40;12.80;;;;;;;;;;5043855;28;20408;-71
2022/10/20 05:32:15;;;;;;;22.03;12.43;;;;;;;;;;5034481;28;20221;-71
2022/10/20 05:34:42;;;;;;;24.00;12.83;;;;;;;;;;5042022;28;20181;-72
2022/10/20 05:37:08;;;;;;;20.67;13.57;;;;;;;;;;5054198;28;20291;-71
2022/10/20 05:39:33;;;;;;;21.37;12.73;;;;;;;;;;5055152;28;20775;-71
2022/10/20 05:41:58;;;;;;;24.13;13.20;;;;;;;;;;5036018;28;20225;-71
2022/10/20 05:44:23;;;;;;;19.67;12.93;;;;;;;;;;5039274;28;20269;-71
2022/10/20 05:46:49;;;;;;;23.63;13.97;;;;;;;;;;5048844;28;20261;-71
2022/10/20 05:49:16;;;;;;;22.20;13.57;;;;;;;;;;5043016;28;20182;-71
2022/10/20 05:51:42;;;;;;;22.00;13.97;;;;;;;;;;5033464;28;20213;-71
2022/10/20 05:54:10;;;;;;;23.50;13.90;;;;;;;;;;5048520;28;20209;-71
2022/10/20 05:56:36;;;;;;;22.70;14.10;;;;;;;;;;5033347;28;20178;-71
2022/10/20 05:59:01;;;;;;;19.20;13.50;;;;;;;;;;5049707;28;20186;-71
2022/10/20 06:01:39;;;;;;;24.23;15.03;;;;;;;;;;5041837;28;20182;-71
2022/10/20 06:04:05;;;;;;;22.57;13.70;;;;;;;;;;5048623;28;20201;-71
2022/10/20 06:06:31;;;;;;;24.30;14.63;;;;;;;;;;5040167;28;20193;-71
2022/10/20 06:08:58;;;;;;;21.63;15.00;;;;;;;;;;5047488;28;20203;-71
2022/10/20 06:11:24;;;;;;;23.87;15.40;;;;;;;;;;5033975;28;20245;-71
2022/10/20 06:13:50;;;;;;;21.33;14.17;;;;;;;;;;5050814;28;20239;-71
2022/10/20 06:16:18;;;;;;;27.30;15.27;;;;;;;;;;5047640;28;20182;-70
2022/10/20 06:18:44;;;;;;;24.33;15.90;;;;;;;;;;5036958;28;20588;-70
2022/10/20 06:21:11;;;;;;;23.27;14.47;;;;;;;;;;5035648;28;20282;-70
2022/10/20 06:23:37;;;;;;;25.97;15.07;;;;;;;;;;5045503;28;20186;-72
2022/10/20 06:26:16;;;;;;;19.97;14.70;;;;;;;;;;5040321;28;20189;-71
2022/10/20 06:28:42;;;;;;;23.13;14.07;;;;;;;;;;5047403;28;20181;-71
2022/10/20 06:31:13;;;;;;;21.17;14.77;;;;;;;;;;5037451;28;20309;-72
2022/10/20 06:33:38;;;;;;;21.27;14.57;;;;;;;;;;5033449;28;20230;-71
2022/10/20 06:36:04;;;;;;;24.03;14.93;;;;;;;;;;5042278;28;20193;-72
2022/10/20 06:38:29;;;;;;;25.00;15.17;;;;;;;;;;5044856;28;20181;-71
2022/10/20 06:40:54;;;;;;;23.90;14.67;;;;;;;;;;5040524;28;20186;-71
2022/10/20 06:43:20;;;;;;;20.27;15.20;;;;;;;;;;5051126;28;20623;-71
2022/10/20 06:46:01;;;;;;;24.17;14.67;;;;;;;;;;5035971;28;20581;-71
2022/10/20 06:48:27;;;;;;;20.70;14.87;;;;;;;;;;5040111;28;20182;-71
2022/10/20 06:51:00;;;;;;;21.60;14.77;;;;;;;;;;5042674;28;20171;-71
2022/10/20 06:53:27;;;;;;;22.33;14.80;;;;;;;;;;5035251;28;20181;-71
2022/10/20 06:56:06;;;;;;;26.53;15.13;;;;;;;;;;5047737;28;20270;-71
2022/10/20 06:58:34;;;;;;;22.67;15.07;;;;;;;;;;5030936;28;20560;-71
2022/10/20 07:01:01;;;;;;;21.37;14.37;;;;;;;;;;5039032;28;20660;-71
2022/10/20 07:03:28;;;;;;;20.30;15.20;;;;;;;;;;5042176;28;20178;-71
2022/10/20 07:05:54;;;;;;;20.40;14.60;;;;;;;;;;5035743;28;20177;-71
2022/10/20 07:08:20;;;;;;;21.13;14.20;;;;;;;;;;5031058;28;20564;-70
2022/10/20 07:10:46;;;;;;;21.60;13.97;;;;;;;;;;5040416;28;20178;-70
2022/10/20 07:13:11;;;;;;;26.13;14.73;;;;;;;;;;5049138;28;20263;-70
2022/10/20 07:15:36;;;;;;;23.70;14.23;;;;;;;;;;5040700;28;20174;-71
2022/10/20 07:18:02;;;;;;;19.50;14.13;;;;;;;;;;5037575;28;20185;-71
2022/10/20 07:20:27;;;;;;;21.23;14.03;;;;;;;;;;5038887;28;20872;-70
2022/10/20 07:22:52;;;;;;;17.17;13.80;;;;;;;;;;5049542;28;20645;-71
2022/10/20 07:25:20;;;;;;;17.90;13.80;;;;;;;;;;5047004;28;20827;-71
2022/10/20 07:27:46;;;;;;;17.67;13.13;;;;;;;;;;5037384;28;20646;-71
2022/10/20 07:30:11;;;;;;;16.27;13.03;;;;;;;;;;5043338;28;20185;-71
2022/10/20 07:32:36;;;;;;;17.03;12.83;;;;;;;;;;5036217;28;20226;-71
2022/10/20 07:35:02;;;;;;;18.70;13.40;;;;;;;;;;5031184;28;20657;-71
2022/10/20 07:37:27;;;;;;;20.57;12.57;;;;;;;;;;5044427;28;20174;-70
2022/10/20 07:39:53;;;;;;;14.73;12.53;;;;;;;;;;5035867;28;20295;-70
2022/10/20 07:42:18;;;;;;;19.37;14.03;;;;;;;;;;5033821;28;20553;-71
2022/10/20 07:44:43;;;;;;;14.50;12.70;;;;;;;;;;5039825;28;20850;-70
2022/10/20 07:47:09;;;;;;;18.17;13.03;;;;;;;;;;5042387;28;20440;-70
2022/10/20 07:49:34;;;;;;;19.10;12.57;;;;;;;;;;5042090;28;20178;-70
2022/10/20 07:51:59;;;;;;;20.27;12.30;;;;;;;;;;5043408;28;20569;-70
2022/10/20 07:54:24;;;;;;;21.00;13.30;;;;;;;;;;5042339;28;20189;-71
2022/10/20 07:56:50;;;;;;;14.83;11.37;;;;;;;;;;5034949;28;20306;-71
2022/10/20 07:59:15;;;;;;;17.47;11.67;;;;;;;;;;5042307;28;20545;-70
2022/10/20 08:01:41;;;;;;;15.73;11.30;;;;;;;;;;5041781;28;20231;-71
2022/10/20 08:04:06;;;;;;;13.97;10.80;;;;;;;;;;5029605;28;20253;-71
2022/10/20 08:06:32;;;;;;;12.47;10.63;;;;;;;;;;5040766;28;20638;-71
2022/10/20 08:08:58;;;;;;;13.47;10.40;;;;;;;;;;5029500;28;20292;-73
2022/10/20 08:11:24;;;;;;;13.73;10.90;;;;;;;;;;5033444;28;20304;-71
2022/10/20 08:13:49;;;;;;;15.20;10.07;;;;;;;;;;5047432;28;20772;-71
2022/10/20 08:16:14;;;;;;;14.77;9.70;;;;;;;;;;5039766;28;20181;-71
2022/10/20 08:18:41;;;;;;;13.20;9.00;;;;;;;;;;5034925;28;20698;-71
2022/10/20 08:21:14;;;;;;;11.65;8.40;;;;;;;;;;5039379;28;20212;-70
2022/10/20 08:23:41;;;;;;;9.27;8.27;;;;;;;;;;5044219;28;20196;-71
2022/10/20 08:26:07;;;;;;;11.27;8.65;;;;;;;;;;5039535;28;20182;-71
2022/10/20 08:28:33;;;;;;;9.75;8.73;;;;;;;;;;5028017;28;20181;-70
2022/10/20 08:31:01;;;;;;;9.55;8.23;;;;;;;;;;5030217;28;20189;-70
2022/10/20 08:33:27;;;;;;;9.63;8.25;;;;;;;;;;5029025;28;20257;-70
2022/10/20 08:35:52;;;;;;;9.70;7.78;;;;;;;;;;5028606;28;20202;-71
2022/10/20 08:38:18;;;;;;;11.68;7.80;;;;;;;;;;5023017;28;20212;-70
2022/10/20 08:40:43;;;;;;;8.85;7.57;;;;;;;;;;5042776;28;20189;-71
2022/10/20 08:43:16;;;;;;;9.20;7.45;;;;;;;;;;5043502;28;20177;-70
2022/10/20 08:45:42;;;;;;;10.48;7.93;;;;;;;;;;5034784;28;20197;-71
2022/10/20 08:48:16;;;;;;;11.55;7.72;;;;;;;;;;5049784;28;20193;-71
2022/10/20 08:50:45;;;;;;;9.55;7.22;;;;;;;;;;5041998;28;20176;-70
2022/10/20 08:53:11;;;;;;;14.27;7.68;;;;;;;;;;5040980;28;20244;-70
2022/10/20 08:55:36;;;;;;;10.13;7.78;;;;;;;;;;5030058;28;20272;-70
2022/10/20 08:58:12;;;;;;;10.00;7.80;;;;;;;;;;5041815;28;20297;-71
2022/10/20 09:00:38;;;;;;;8.00;7.03;;;;;;;;;;5038029;28;20208;-71
2022/10/20 09:03:23;;;;;;;8.73;6.95;;;;;;;;;;5049149;28;20181;-71
2022/10/20 09:06:06;;;;;;;10.95;6.85;;;;;;;;;;5034269;28;20181;-71
2022/10/20 09:08:36;;;;;;;9.40;6.78;;;;;;;;;;5036954;28;20193;-71
2022/10/20 09:11:02;;;;;;;9.98;7.38;;;;;;;;;;5045220;28;20178;-71
2022/10/20 09:13:30;;;;;;;10.88;7.28;;;;;;;;;;5049096;28;20240;-71
2022/10/20 09:16:03;;;;;;;9.63;6.78;;;;;;;;;;5043830;28;20637;-71
2022/10/20 09:18:30;;;;;;;12.27;6.72;;;;;;;;;;5037820;28;20185;-71
2022/10/20 09:21:00;;;;;;;7.93;6.47;;;;;;;;;;5042030;28;20178;-71
2022/10/20 09:23:35;;;;;;;8.85;7.07;;;;;;;;;;5048095;28;20259;-71
2022/10/20 09:26:01;;;;;;;8.95;6.93;;;;;;;;;;5039142;28;20527;-70
2022/10/20 09:28:27;;;;;;;10.70;7.07;;;;;;;;;;5033599;28;20188;-70
2022/10/20 09:30:54;;;;;;;10.05;6.97;;;;;;;;;;5032127;28;20693;-71
2022/10/20 09:33:20;;;;;;;11.93;7.05;;;;;;;;;;5029289;28;20234;-70
2022/10/20 09:35:47;;;;;;;8.95;6.80;;;;;;;;;;5048544;28;20511;-71
2022/10/20 09:38:25;;;;;;;12.25;6.85;;;;;;;;;;5044702;28;20205;-70
2022/10/20 09:41:13;;;;;;;9.55;7.10;;;;;;;;;;5028677;28;20273;-70
2022/10/20 09:44:06;;;;;;;9.00;7.28;;;;;;;;;;5039527;28;20517;-70
2022/10/20 09:46:38;;;;;;;10.55;6.97;;;;;;;;;;5043635;28;20594;-70
2022/10/20 09:49:05;;;;;;;9.90;6.85;;;;;;;;;;5033156;28;20182;-70
2022/10/20 09:51:31;;;;;;;9.18;6.72;;;;;;;;;;5036734;28;20220;-70
2022/10/20 09:54:03;;;;;;;10.35;6.88;;;;;;;;;;5044483;28;20181;-70
2022/10/20 09:56:33;;;;;;;10.50;7.30;;;;;;;;;;5039152;28;20200;-70
2022/10/20 09:59:01;;;;;;;7.63;6.68;;;;;;;;;;5033688;28;20182;-70
2022/10/20 10:01:27;;;;;;;9.40;6.78;;;;;;;;;;5048085;28;20275;-70
2022/10/20 10:04:00;;;;;;;7.45;6.68;;;;;;;;;;5048543;28;20330;-70
2022/10/20 10:06:37;;;;;;;9.48;7.00;;;;;;;;;;5038418;28;20613;-70
2022/10/20 10:09:42;;;;;;;9.70;6.35;;;;;;;;;;5036954;28;20673;-70
2022/10/20 10:12:10;;;;;;;8.15;6.57;;;;;;;;;;5045845;28;20264;-69
2022/10/20 10:14:36;;;;;;;8.85;6.57;;;;;;;;;;5039454;28;20707;-70
2022/10/20 10:17:01;;;;;;;11.70;6.50;;;;;;;;;;5041720;28;20213;-70
2022/10/20 10:19:29;;;;;;;9.27;6.97;;;;;;;;;;5042346;28;20583;-70
2022/10/20 10:22:00;;;;;;;16.63;7.40;;;;;;;;;;5051192;28;20190;-70
2022/10/20 10:24:31;;;;;;;9.52;6.82;;;;;;;;;;5051578;28;20185;-70
2022/10/20 10:26:57;;;;;;;9.68;6.97;;;;;;;;;;5035135;28;20216;-71
2022/10/20 10:29:28;;;;;;;10.50;7.43;;;;;;;;;;5031653;28;20209;-70
2022/10/20 10:31:59;;;;;;;13.15;7.50;;;;;;;;;;5045043;28;20234;-70
2022/10/20 10:34:33;;;;;;;10.40;7.32;;;;;;;;;;5049753;28;20181;-70
2022/10/20 10:36:59;;;;;;;12.10;8.20;;;;;;;;;;5040367;28;20550;-70
2022/10/20 10:39:25;;;;;;;12.60;7.55;;;;;;;;;;5040411;28;20177;-70
2022/10/20 10:41:53;;;;;;;7.43;6.68;;;;;;;;;;5038815;28;20283;-70
2022/10/20 10:44:52;;;;;;;11.07;7.38;;;;;;;;;;5047218;28;20208;-70
2022/10/20 10:47:57;;;;;;;15.10;7.88;;;;;;;;;;5036806;28;20185;-70
2022/10/20 10:50:31;;;;;;;12.70;7.72;;;;;;;;;;5037951;28;20186;-70
2022/10/20 10:53:19;;;;;;;12.68;7.88;;;;;;;;;;5031661;28;20197;-70
2022/10/20 10:56:06;;;;;;;12.32;8.70;;;;;;;;;;5029590;28;20189;-70
2022/10/20 10:58:38;;;;;;;12.73;8.98;;;;;;;;;;5031414;28;20197;-70
2022/10/20 11:01:42;;;;;;;17.85;8.93;;;;;;;;;;5030673;28;20194;-70
2022/10/20 11:04:31;;;;;;;18.27;8.48;;;;;;;;;;5048251;28;20255;-70
2022/10/20 11:07:02;;;;;;;13.43;8.18;;;;;;;;;;5049674;28;20235;-70
2022/10/20 11:09:41;;;;;;;12.57;7.97;;;;;;;;;;5034422;28;20232;-70
2022/10/20 11:12:21;;;;;;;10.65;7.85;;;;;;;;;;5036077;28;20213;-70
2022/10/20 11:15:07;;;;;;;10.88;8.05;;;;;;;;;;5030643;28;20182;-70
2022/10/20 11:17:48;;;;;;;14.07;8.27;;;;;;;;;;5040571;28;20181;-70
2022/10/20 11:20:28;;;;;;;10.75;7.68;;;;;;;;;;5049952;28;20189;-70
2022/10/20 11:23:05;;;;;;;11.98;8.00;;;;;;;;;;5038758;28;20181;-70
2022/10/20 11:26:01;;;;;;;11.70;8.73;;;;;;;;;;5035584;28;20197;-70
2022/10/20 11:28:29;;;;;;;13.63;8.25;;;;;;;;;;5041637;28;20201;-70
2022/10/20 11:30:57;;;;;;;16.25;8.95;;;;;;;;;;5038844;28;20243;-70
2022/10/20 11:33:28;;;;;;;15.23;8.45;;;;;;;;;;5050058;28;20229;-70
2022/10/20 11:35:59;;;;;;;17.98;8.82;;;;;;;;;;5038611;28;20185;-70
2022/10/20 11:38:44;;;;;;;11.15;8.50;;;;;;;;;;5033066;28;20277;-70
2022/10/20 11:41:17;;;;;;;9.98;8.15;;;;;;;;;;5037244;28;20188;-70
2022/10/20 11:43:54;;;;;;;15.32;8.90;;;;;;;;;;5047319;28;20184;-70
2022/10/20 11:46:55;;;;;;;12.10;8.73;;;;;;;;;;5038513;28;20185;-71
2022/10/20 11:49:21;;;;;;;16.35;8.68;;;;;;;;;;5031795;28;20188;-70
2022/10/20 11:52:06;;;;;;;15.52;9.30;;;;;;;;;;5035832;28;20213;-69
2022/10/20 11:54:44;;;;;;;14.13;9.63;;;;;;;;;;5029668;28;20174;-70
2022/10/20 11:57:34;;;;;;;16.17;9.27;;;;;;;;;;5043435;28;20208;-70
2022/10/20 12:00:10;;;;;;;17.90;10.13;;;;;;;;;;5039465;28;20173;-70
2022/10/20 12:02:47;;;;;;;13.48;9.80;;;;;;;;;;5040422;28;20177;-70
2022/10/20 12:05:34;;;;;;;13.45;9.88;;;;;;;;;;5030996;28;20276;-69
2022/10/20 12:08:32;;;;;;;14.48;11.20;;;;;;;;;;5045754;28;20185;-69
2022/10/20 12:11:15;;;;;;;14.82;10.23;;;;;;;;;;5028761;28;20190;-69
2022/10/20 12:14:02;;;;;;;13.57;10.38;;;;;;;;;;5035221;28;20173;-70
2022/10/20 12:16:52;;;;;;;13.52;9.80;;;;;;;;;;5041354;28;20209;-70
2022/10/20 12:19:20;;;;;;;19.23;10.55;;;;;;;;;;5029899;28;20232;-70
2022/10/20 12:21:56;;;;;;;13.30;9.73;;;;;;;;;;5030722;28;20205;-69
2022/10/20 12:24:39;;;;;;;14.95;9.73;;;;;;;;;;5038666;28;20193;-70
2022/10/20 12:27:08;;;;;;;13.05;9.60;;;;;;;;;;5035130;28;20659;-70
2022/10/20 12:29:33;;;;;;;14.60;10.25;;;;;;;;;;5042807;28;20182;-70
2022/10/20 12:32:20;;;;;;;18.67;10.65;;;;;;;;;;5033281;28;20288;-70
2022/10/20 12:34:47;;;;;;;15.60;10.60;;;;;;;;;;5044494;28;20186;-70
2022/10/20 12:37:18;;;;;;;13.43;10.15;;;;;;;;;;5031448;28;20190;-70
2022/10/20 12:39:44;;;;;;;16.27;10.55;;;;;;;;;;5048857;28;20378;-70
2022/10/20 12:42:26;;;;;;;14.63;11.05;;;;;;;;;;5035645;28;20173;-70
2022/10/20 12:44:52;;;;;;;15.45;11.13;;;;;;;;;;5033994;28;20197;-70
2022/10/20 12:47:29;;;;;;;20.10;12.32;;;;;;;;;;5030417;28;20178;-70
2022/10/20 12:50:00;;;;;;;20.75;12.77;;;;;;;;;;5039714;28;20186;-70
2022/10/20 12:52:29;;;;;;;18.50;11.60;;;;;;;;;;5030692;28;20194;-70
2022/10/20 12:55:03;;;;;;;21.25;12.88;;;;;;;;;;5049432;28;20208;-70
2022/10/20 12:57:43;;;;;;;17.80;12.98;;;;;;;;;;5045580;28;20684;-71
2022/10/20 13:00:18;;;;;;;16.45;12.27;;;;;;;;;;5043724;28;20194;-71
2022/10/20 13:02:46;;;;;;;18.02;12.70;;;;;;;;;;5028504;28;20173;-70
2022/10/20 13:05:11;;;;;;;19.13;13.68;;;;;;;;;;5030851;28;20189;-71
2022/10/20 13:07:49;;;;;;;20.05;13.25;;;;;;;;;;5031792;28;20518;-70
2022/10/20 13:10:26;;;;;;;18.58;13.98;;;;;;;;;;5028813;28;20185;-70
2022/10/20 13:12:53;;;;;;;17.65;13.38;;;;;;;;;;5045434;28;20208;-73
2022/10/20 13:15:24;;;;;;;17.10;13.55;;;;;;;;;;5044225;28;20264;-73
2022/10/20 13:17:55;;;;;;;20.08;14.02;;;;;;;;;;5048765;28;20552;-72
2022/10/20 13:20:44;;;;;;;23.88;14.50;;;;;;;;;;5029825;28;20182;-73
2022/10/20 13:23:14;;;;;;;22.05;15.35;;;;;;;;;;5048523;28;20173;-75
2022/10/20 13:25:43;;;;;;;24.70;15.15;;;;;;;;;;5045954;28;20182;-72
2022/10/20 13:28:11;;;;;;;30.23;16.98;;;;;;;;;;5044706;28;20219;-74
2022/10/20 13:30:55;;;;;;;26.15;17.92;;;;;;;;;;5037300;28;20186;-74
2022/10/20 13:33:45;;;;;;;23.27;17.48;;;;;;;;;;5048572;28;20286;-75
2022/10/20 13:36:32;;;;;;;29.35;18.45;;;;;;;;;;5038579;28;20666;-75
2022/10/20 13:39:18;;;;;;;27.58;18.55;;;;;;;;;;5035276;28;20184;-76
2022/10/20 13:42:06;;;;;;;24.35;18.20;;;;;;;;;;5044479;28;20178;-74
2022/10/20 13:44:39;;;;;;;25.73;18.70;;;;;;;;;;5033468;28;20181;-74
2022/10/20 13:47:31;;;;;;;29.58;18.48;;;;;;;;;;5039468;28;20190;-73
2022/10/20 13:50:04;;;;;;;29.92;18.55;;;;;;;;;;5040380;28;20177;-72
2022/10/20 13:52:33;;;;;;;28.35;18.52;;;;;;;;;;5039273;28;20650;-73
2022/10/20 13:54:59;;;;;;;27.67;18.83;;;;;;;;;;5031009;28;20269;-72
2022/10/20 13:57:31;;;;;;;26.88;19.05;;;;;;;;;;5032176;28;20268;-73
2022/10/20 13:59:59;;;;;;;27.13;17.13;;;;;;;;;;5041818;28;20182;-73
2022/10/20 14:02:30;;;;;;;27.35;18.52;;;;;;;;;;5043151;28;20516;-71
2022/10/20 14:05:09;;;;;;;24.88;17.42;;;;;;;;;;5041326;28;20678;-73
2022/10/20 14:07:40;;;;;;;30.98;18.38;;;;;;;;;;5044047;28;20272;-72
2022/10/20 14:10:06;;;;;;;23.83;17.90;;;;;;;;;;5031668;28;20178;-72
2022/10/20 14:12:32;;;;;;;30.52;18.75;;;;;;;;;;5037330;28;20206;-71
2022/10/20 14:14:58;;;;;;;26.40;18.15;;;;;;;;;;5039510;28;20178;-70
2022/10/20 14:17:25;;;;;;;26.58;18.40;;;;;;;;;;5044257;28;20531;-70
2022/10/20 14:20:06;;;;;;;25.58;18.48;;;;;;;;;;5045276;28;20716;-69
2022/10/20 14:22:33;;;;;;;26.05;17.42;;;;;;;;;;5049096;28;20181;-70
2022/10/20 14:24:59;;;;;;;28.52;18.20;;;;;;;;;;5051010;28;20186;-70
2022/10/20 14:27:30;;;;;;;26.70;17.05;;;;;;;;;;5042617;28;20174;-70
2022/10/20 14:29:57;;;;;;;24.35;17.23;;;;;;;;;;5038852;28;20280;-70
2022/10/20 14:32:28;;;;;;;23.45;16.73;;;;;;;;;;5034177;28;20593;-70
2022/10/20 14:35:17;;;;;;;24.88;16.42;;;;;;;;;;5039696;28;20186;-69
2022/10/20 14:38:02;;;;;;;23.27;17.42;;;;;;;;;;5032474;28;20217;-70
2022/10/20 14:40:32;;;;;;;29.13;17.85;;;;;;;;;;5036541;28;20220;-70
2022/10/20 14:43:05;;;;;;;23.50;16.17;;;;;;;;;;5044763;28;20177;-69
2022/10/20 14:45:30;;;;;;;36.10;26.05;;;;;;;;;;5036027;28;20624;-69
2022/10/20 14:47:58;;;;;;;24.65;16.88;;;;;;;;;;5040294;28;20177;-71